createdAt,value
2022-09-10T00:01:20.046Z,99309.91
2022-09-10T00:03:50.130Z,99317.97
2022-09-10T00:06:18.815Z,99309.91
2022-09-10T00:08:46.619Z,99309.22
2022-09-10T00:11:14.997Z,99304.84
2022-09-10T00:13:42.803Z,99307.03
2022-09-10T00:16:10.391Z,99295.81
2022-09-10T00:18:39.420Z,99298.84
2022-09-10T00:21:07.207Z,99306.25
2022-09-10T00:23:34.948Z,99305.56
2022-09-10T00:26:02.669Z,99303.22
2022-09-10T00:28:30.475Z,99303.38
2022-09-10T00:30:58.298Z,99303.59
2022-09-10T00:33:26.306Z,99296.69
2022-09-10T00:35:53.936Z,99302.41
2022-09-10T00:38:21.657Z,99311.66
2022-09-10T00:40:49.430Z,99306.63
2022-09-10T00:43:18.941Z,99312.16
2022-09-10T00:45:46.557Z,99314.34
2022-09-10T00:48:14.496Z,99313.66
2022-09-10T00:50:42.234Z,99306.63
2022-09-10T00:53:10.686Z,99305.78
2022-09-10T00:55:38.505Z,99302.28
2022-09-10T00:58:06.267Z,99304.28
2022-09-10T01:00:33.897Z,99292.72
2022-09-10T01:03:01.904Z,99298.94
2022-09-10T01:05:29.690Z,99293.56
2022-09-10T01:07:58.311Z,99294.22
2022-09-10T01:10:26.395Z,99297.56
2022-09-10T01:12:54.660Z,99297.56
2022-09-10T01:15:22.404Z,99293.88
2022-09-10T01:17:50.097Z,99299.94
2022-09-10T01:20:17.856Z,99295.22
2022-09-10T01:22:45.589Z,99300.22
2022-09-10T01:25:13.251Z,99296.72
2022-09-10T01:27:41.416Z,99298.56
2022-09-10T01:30:09.157Z,99301.41
2022-09-10T01:32:37.031Z,99305.28
2022-09-10T01:35:04.663Z,99300.25
2022-09-10T01:37:32.228Z,99304.09
2022-09-10T01:39:59.970Z,99303.59
2022-09-10T01:42:28.530Z,99301.13
2022-09-10T01:44:57.416Z,99301.63
2022-09-10T01:47:25.049Z,99303.63
2022-09-10T01:49:53.110Z,99306.81
2022-09-10T01:52:22.322Z,99314.22
2022-09-10T01:54:49.933Z,99311.88
2022-09-10T01:57:17.566Z,99312.03
2022-09-10T01:59:45.295Z,99313.19
2022-09-10T02:02:13.456Z,99313.03
2022-09-10T02:04:41.046Z,99311.19
2022-09-10T02:07:08.789Z,99315.38
2022-09-10T02:09:36.431Z,99313.19
2022-09-10T02:12:04.348Z,99312.03
2022-09-10T02:14:31.974Z,99322.25
2022-09-10T02:16:59.853Z,99322.75
2022-09-10T02:19:27.869Z,99319.91
2022-09-10T02:21:56.330Z,99309.66
2022-09-10T02:24:24.055Z,99313.66
2022-09-10T02:26:51.698Z,99320.56
2022-09-10T02:29:19.487Z,99312.50
2022-09-10T02:31:48.179Z,99315.19
2022-09-10T02:34:16.169Z,99311.47
2022-09-10T02:36:43.899Z,99306.28
2022-09-10T02:39:11.529Z,99312.66
2022-09-10T02:41:41.297Z,99314.53
2022-09-10T02:44:08.937Z,99322.56
2022-09-10T02:46:36.651Z,99313.84
2022-09-10T02:49:04.285Z,99313.00
2022-09-10T02:51:32.241Z,99313.84
2022-09-10T02:53:59.849Z,99316.50
2022-09-10T02:56:27.421Z,99313.00
2022-09-10T02:58:55.097Z,99318.38
2022-09-10T03:01:22.701Z,99314.69
2022-09-10T03:03:50.661Z,99305.97
2022-09-10T03:06:18.484Z,99312.69
2022-09-10T03:08:46.222Z,99307.66
2022-09-10T03:11:16.565Z,99305.28
2022-09-10T03:13:46.395Z,99311.88
2022-09-10T03:16:14.511Z,99305.66
2022-09-10T03:18:42.243Z,99308.31
2022-09-10T03:21:09.968Z,99303.97
2022-09-10T03:23:37.929Z,99305.47
2022-09-10T03:26:06.300Z,99300.13
2022-09-10T03:28:34.264Z,99305.28
2022-09-10T03:31:02.253Z,99306.16
2022-09-10T03:33:35.048Z,99307.00
2022-09-10T03:36:02.843Z,99306.16
2022-09-10T03:38:30.566Z,99312.38
2022-09-10T03:40:58.322Z,99310.34
2022-09-10T03:43:27.291Z,99302.94
2022-09-10T03:45:55.496Z,99304.63
2022-09-10T03:48:23.121Z,99310.69
2022-09-10T03:50:51.363Z,99304.28
2022-09-10T03:53:19.283Z,99313.84
2022-09-10T03:55:46.888Z,99310.97
2022-09-10T03:58:14.513Z,99314.53
2022-09-10T04:00:43.059Z,99314.53
2022-09-10T04:03:11.392Z,99314.34
2022-09-10T04:05:39.016Z,99313.34
2022-09-10T04:08:07.612Z,99319.53
2022-09-10T04:10:35.458Z,99314.00
2022-09-10T04:13:03.304Z,99314.34
2022-09-10T04:15:31.005Z,99314.69
2022-09-10T04:17:58.565Z,99319.19
2022-09-10T04:20:26.194Z,99319.03
2022-09-10T04:22:54.026Z,99317.22
2022-09-10T04:25:21.662Z,99318.03
2022-09-10T04:27:49.310Z,99318.38
2022-09-10T04:30:16.990Z,99315.69
2022-09-10T04:32:45.430Z,99321.22
2022-09-10T04:35:15.489Z,99309.66
2022-09-10T04:37:43.190Z,99317.88
2022-09-10T04:40:10.979Z,99307.16
2022-09-10T04:42:38.952Z,99310.84
2022-09-10T04:45:06.704Z,99315.34
2022-09-10T04:47:34.447Z,99310.00
2022-09-10T04:50:02.179Z,99319.72
2022-09-10T04:52:30.650Z,99326.09
2022-09-10T04:54:58.332Z,99326.09
2022-09-10T04:57:26.080Z,99323.25
2022-09-10T04:59:54.162Z,99322.41
2022-09-10T05:02:22.058Z,99323.91
2022-09-10T05:04:50.901Z,99330.47
2022-09-10T05:07:18.496Z,99331.31
2022-09-10T05:09:46.110Z,99322.59
2022-09-10T05:12:15.491Z,99330.47
2022-09-10T05:14:43.251Z,99328.47
2022-09-10T05:17:11.498Z,99330.16
2022-09-10T05:19:39.164Z,99328.13
2022-09-10T05:22:07.069Z,99327.09
2022-09-10T05:24:35.305Z,99328.97
2022-09-10T05:27:02.951Z,99327.09
2022-09-10T05:29:30.516Z,99328.78
2022-09-10T05:31:58.551Z,99324.25
2022-09-10T05:34:26.249Z,99328.63
2022-09-10T05:36:53.897Z,99331.97
2022-09-10T05:39:21.528Z,99326.09
2022-09-10T05:41:49.471Z,99330.13
2022-09-10T05:44:17.703Z,99341.19
2022-09-10T05:46:45.343Z,99341.88
2022-09-10T05:49:13.315Z,99344.03
2022-09-10T05:51:41.603Z,99342.50
2022-09-10T05:54:09.317Z,99344.66
2022-09-10T05:56:36.951Z,99346.84
2022-09-10T05:59:05.808Z,99352.72
2022-09-10T06:01:33.359Z,99350.72
2022-09-10T06:04:01.918Z,99354.72
2022-09-10T06:06:29.477Z,99351.69
2022-09-10T06:08:57.124Z,99359.25
2022-09-10T06:11:24.836Z,99351.84
2022-09-10T06:13:53.462Z,99361.41
2022-09-10T06:16:21.183Z,99370.81
2022-09-10T06:18:48.871Z,99365.28
2022-09-10T06:21:16.549Z,99360.41
2022-09-10T06:23:45.513Z,99362.06
2022-09-10T06:26:13.077Z,99359.56
2022-09-10T06:28:40.823Z,99368.13
2022-09-10T06:31:08.510Z,99366.28
2022-09-10T06:33:36.453Z,99368.00
2022-09-10T06:36:04.132Z,99375.75
2022-09-10T06:38:33.760Z,99377.94
2022-09-10T06:41:01.422Z,99382.47
2022-09-10T06:43:29.336Z,99375.28
2022-09-10T06:45:56.900Z,99381.31
2022-09-10T06:48:47.550Z,99383.13
2022-09-10T06:51:15.749Z,99388.69
2022-09-10T06:53:43.679Z,99381.66
2022-09-10T06:56:11.411Z,99386.84
2022-09-10T06:58:39.292Z,99386.69
2022-09-10T07:01:13.929Z,99385.50
2022-09-10T07:03:41.579Z,99385.50
2022-09-10T07:06:09.892Z,99385.16
2022-09-10T07:08:37.552Z,99388.34
2022-09-10T07:11:05.526Z,99390.22
2022-09-10T07:13:33.173Z,99386.50
2022-09-10T07:16:01.008Z,99390.50
2022-09-10T07:18:28.905Z,99391.84
2022-09-10T07:20:56.724Z,99387.78
2022-09-10T07:23:24.354Z,99393.47
2022-09-10T07:25:52.302Z,99388.41
2022-09-10T07:28:19.875Z,99394.09
2022-09-10T07:30:47.812Z,99387.13
2022-09-10T07:33:15.733Z,99392.94
2022-09-10T07:35:43.448Z,99397.59
2022-09-10T07:38:11.515Z,99398.72
2022-09-10T07:40:39.272Z,99411.31
2022-09-10T07:43:08.377Z,99404.38
2022-09-10T07:45:36.053Z,99407.56
2022-09-10T07:48:03.822Z,99406.91
2022-09-10T07:50:31.563Z,99409.44
2022-09-10T07:52:59.420Z,99410.19
2022-09-10T07:55:26.985Z,99409.50
2022-09-10T07:57:59.881Z,99417.09
2022-09-10T08:00:27.752Z,99420.97
2022-09-10T08:02:55.715Z,99412.75
2022-09-10T08:05:23.580Z,99414.97
2022-09-10T08:07:51.243Z,99414.16
2022-09-10T08:10:19.861Z,99421.19
2022-09-10T08:12:47.848Z,99420.00
2022-09-10T08:15:16.474Z,99421.31
2022-09-10T08:17:44.120Z,99425.16
2022-09-10T08:20:11.779Z,99433.72
2022-09-10T08:22:39.409Z,99425.31
2022-09-10T08:25:06.965Z,99429.63
2022-09-10T08:27:35.368Z,99429.06
2022-09-10T08:30:03.084Z,99425.25
2022-09-10T08:32:31.360Z,99430.47
2022-09-10T08:34:59.103Z,99428.97
2022-09-10T08:37:26.845Z,99420.38
2022-09-10T08:39:54.589Z,99421.28
2022-09-10T08:42:22.666Z,99426.38
2022-09-10T08:44:50.324Z,99426.97
2022-09-10T08:47:20.586Z,99426.41
2022-09-10T08:49:48.279Z,99425.38
2022-09-10T08:52:16.767Z,99422.88
2022-09-10T08:54:44.575Z,99430.31
2022-09-10T08:57:12.401Z,99422.13
2022-09-10T08:59:40.752Z,99430.41
2022-09-10T09:02:08.708Z,99441.75
2022-09-10T09:04:36.557Z,99438.41
2022-09-10T09:07:04.757Z,99441.44
2022-09-10T09:09:32.343Z,99439.78
2022-09-10T09:12:00.203Z,99441.63
2022-09-10T09:14:28.186Z,99438.56
2022-09-10T09:16:56.024Z,99437.47
2022-09-10T09:19:23.888Z,99437.94
2022-09-10T09:21:52.283Z,99435.59
2022-09-10T09:24:19.960Z,99438.25
2022-09-10T09:26:48.112Z,99439.72
2022-09-10T09:29:18.220Z,99431.03
2022-09-10T09:31:46.584Z,99430.31
2022-09-10T09:34:14.240Z,99429.00
2022-09-10T09:36:42.607Z,99423.78
2022-09-10T09:39:10.220Z,99421.84
2022-09-10T09:41:38.676Z,99433.16
2022-09-10T09:44:06.875Z,99429.25
2022-09-10T09:46:34.572Z,99427.91
2022-09-10T09:49:02.233Z,99424.13
2022-09-10T09:51:30.813Z,99431.91
2022-09-10T09:54:25.708Z,99424.81
2022-09-10T09:56:46.180Z,99421.19
2022-09-10T09:59:15.200Z,99427.47
2022-09-10T10:01:43.029Z,99427.78
2022-09-10T10:04:12.009Z,99430.13
2022-09-10T10:06:39.671Z,99423.53
2022-09-10T10:09:07.392Z,99420.78
2022-09-10T10:11:35.057Z,99430.47
2022-09-10T10:14:03.047Z,99431.00
2022-09-10T10:16:30.619Z,99420.06
2022-09-10T10:18:58.268Z,99430.16
2022-09-10T10:21:26.020Z,99426.72
2022-09-10T10:23:53.973Z,99428.91
2022-09-10T10:26:21.676Z,99425.94
2022-09-10T10:28:49.396Z,99417.72
2022-09-10T10:31:17.042Z,99424.44
2022-09-10T10:33:45.481Z,99411.69
2022-09-10T10:36:13.217Z,99420.19
2022-09-10T10:38:41.371Z,99418.00
2022-09-10T10:41:09.821Z,99409.66
2022-09-10T10:43:37.781Z,99406.31
2022-09-10T10:46:11.224Z,99402.13
2022-09-10T10:48:39.565Z,99400.81
2022-09-10T10:51:07.463Z,99398.50
2022-09-10T10:53:36.300Z,99393.28
2022-09-10T10:56:04.154Z,99396.56
2022-09-10T10:58:32.003Z,99392.38
2022-09-10T11:00:59.839Z,99384.84
2022-09-10T11:03:28.277Z,99397.00
2022-09-10T11:05:56.214Z,99393.88
2022-09-10T11:08:23.858Z,99391.72
2022-09-10T11:10:51.768Z,99397.00
2022-09-10T11:13:19.490Z,99404.06
2022-09-10T11:15:47.125Z,99399.63
2022-09-10T11:18:15.196Z,99416.78
2022-09-10T11:20:43.391Z,99409.72
2022-09-10T11:23:12.366Z,99412.38
2022-09-10T11:25:39.955Z,99416.16
2022-09-10T11:28:07.645Z,99411.34
2022-09-10T11:30:35.329Z,99414.22
2022-09-10T11:33:03.298Z,99420.47
2022-09-10T11:35:31.619Z,99413.09
2022-09-10T11:37:59.309Z,99419.34
2022-09-10T11:40:26.981Z,99415.47
2022-09-10T11:42:57.225Z,99423.03
2022-09-10T11:45:25.302Z,99423.41
2022-09-10T11:47:56.658Z,99425.44
2022-09-10T11:50:24.258Z,99428.41
2022-09-10T11:52:53.525Z,99426.06
2022-09-10T11:55:22.087Z,99411.28
2022-09-10T11:57:49.841Z,99394.00
2022-09-10T12:00:17.557Z,99404.91
2022-09-10T12:02:45.568Z,99409.81
2022-09-10T12:05:13.211Z,99404.94
2022-09-10T12:07:40.838Z,99406.78
2022-09-10T12:10:12.266Z,99383.63
2022-09-10T12:12:42.230Z,99376.41
2022-09-10T12:15:09.914Z,99391.84
2022-09-10T12:17:37.689Z,99399.56
2022-09-10T12:20:05.705Z,99428.31
2022-09-10T12:22:37.063Z,99421.41
2022-09-10T12:25:04.775Z,99416.53
2022-09-10T12:27:32.397Z,99418.38
2022-09-10T12:29:59.983Z,99414.69
2022-09-10T12:32:28.750Z,99412.97
2022-09-10T12:34:56.381Z,99401.03
2022-09-10T12:37:24.129Z,99406.09
2022-09-10T12:39:52.118Z,99390.44
2022-09-10T12:42:19.848Z,99392.69
2022-09-10T12:44:47.644Z,99396.81
2022-09-10T12:47:15.408Z,99399.44
2022-09-10T12:49:43.132Z,99400.41
2022-09-10T12:52:10.851Z,99396.72
2022-09-10T12:54:38.602Z,99400.56
2022-09-10T12:57:08.392Z,99403.19
2022-09-10T12:59:36.051Z,99401.66
2022-09-10T13:02:04.153Z,99399.28
2022-09-10T13:04:31.860Z,99398.75
2022-09-10T13:06:59.526Z,99405.16
2022-09-10T13:09:27.128Z,99402.47
2022-09-10T13:11:55.688Z,99406.84
2022-09-10T13:14:23.482Z,99408.69
2022-09-10T13:16:51.132Z,99405.81
2022-09-10T13:19:19.604Z,99409.81
2022-09-10T13:21:48.271Z,99397.03
2022-09-10T13:24:16.438Z,99407.44
2022-09-10T13:26:44.062Z,99404.69
2022-09-10T13:29:12.492Z,99397.72
2022-09-10T13:31:40.266Z,99402.22
2022-09-10T13:34:08.335Z,99398.81
2022-09-10T13:36:35.970Z,99396.41
2022-09-10T13:39:03.641Z,99392.88
2022-09-10T13:41:31.942Z,99393.44
2022-09-10T13:44:01.319Z,99392.31
2022-09-10T13:46:30.568Z,99406.50
2022-09-10T13:48:58.585Z,99396.97
2022-09-10T13:51:26.269Z,99389.97
2022-09-10T13:53:57.008Z,99385.63
2022-09-10T13:56:25.027Z,99385.66
2022-09-10T13:58:52.663Z,99385.38
2022-09-10T14:01:20.407Z,99379.03
2022-09-10T14:03:48.379Z,99366.94
2022-09-10T14:06:16.081Z,99378.06
2022-09-10T14:08:44.090Z,99371.34
2022-09-10T14:11:11.831Z,99375.06
2022-09-10T14:13:40.452Z,99378.75
2022-09-10T14:16:09.495Z,99372.91
2022-09-10T14:18:37.522Z,99370.38
2022-09-10T14:21:05.128Z,99375.59
2022-09-10T14:23:32.890Z,99363.31
2022-09-10T14:26:00.537Z,99365.34
2022-09-10T14:28:28.252Z,99370.75
2022-09-10T14:30:55.972Z,99367.19
2022-09-10T14:33:25.989Z,99369.88
2022-09-10T14:35:53.684Z,99369.88
2022-09-10T14:38:21.385Z,99369.72
2022-09-10T14:40:49.820Z,99377.63
2022-09-10T14:43:18.895Z,99365.00
2022-09-10T14:45:48.012Z,99364.00
2022-09-10T14:48:15.679Z,99365.00
2022-09-10T14:50:43.987Z,99367.88
2022-09-10T14:53:12.663Z,99363.50
2022-09-10T14:55:40.313Z,99364.34
2022-09-10T14:58:08.078Z,99366.00
2022-09-10T15:00:35.843Z,99367.69
2022-09-10T15:03:04.522Z,99374.75
2022-09-10T15:05:32.240Z,99368.16
2022-09-10T15:07:59.960Z,99375.91
2022-09-10T15:10:28.760Z,99380.09
2022-09-10T15:12:56.741Z,99383.44
2022-09-10T15:15:25.118Z,99390.13
2022-09-10T15:17:53.803Z,99387.44
2022-09-10T15:20:25.892Z,99388.13
2022-09-10T15:22:55.444Z,99389.78
2022-09-10T15:25:23.088Z,99389.44
2022-09-10T15:27:50.915Z,99389.09
2022-09-10T15:30:18.670Z,99396.16
2022-09-10T15:32:46.934Z,99390.75
2022-09-10T15:35:14.561Z,99383.72
2022-09-10T15:37:42.291Z,99386.56
2022-09-10T15:40:10.337Z,99386.72
2022-09-10T15:42:39.070Z,99395.81
2022-09-10T15:45:07.282Z,99392.13
2022-09-10T15:47:36.401Z,99386.56
2022-09-10T15:50:05.028Z,99394.47
2022-09-10T15:52:33.056Z,99392.44
2022-09-10T15:55:00.790Z,99393.44
2022-09-10T15:57:28.476Z,99387.88
2022-09-10T15:59:56.218Z,99388.34
2022-09-10T16:02:24.243Z,99387.16
2022-09-10T16:04:51.921Z,99388.69
2022-09-10T16:07:20.341Z,99389.34
2022-09-10T16:09:48.335Z,99384.28
2022-09-10T16:12:18.448Z,99389.91
2022-09-10T16:14:46.866Z,99394.31
2022-09-10T16:17:17.498Z,99391.00
2022-09-10T16:19:45.243Z,99401.19
2022-09-10T16:22:16.396Z,99392.34
2022-09-10T16:24:46.422Z,99394.72
2022-09-10T16:27:14.091Z,99392.00
2022-09-10T16:29:43.686Z,99397.75
2022-09-10T16:32:11.847Z,99408.72
2022-09-10T16:34:39.866Z,99411.59
2022-09-10T16:37:07.892Z,99419.84
2022-09-10T16:39:35.559Z,99419.59
2022-09-10T16:42:04.260Z,99423.00
2022-09-10T16:44:32.547Z,99427.91
2022-09-10T16:47:00.234Z,99423.53
2022-09-10T16:49:27.917Z,99425.84
2022-09-10T16:51:55.753Z,99424.66
2022-09-10T16:54:23.531Z,99435.44
2022-09-10T16:56:51.565Z,99427.53
2022-09-10T16:59:19.711Z,99435.63
2022-09-10T17:01:48.574Z,99436.63
2022-09-10T17:04:20.663Z,99441.00
2022-09-10T17:06:49.196Z,99448.91
2022-09-10T17:09:17.745Z,99451.59
2022-09-10T17:11:45.440Z,99461.75
2022-09-10T17:14:13.076Z,99459.38
2022-09-10T17:16:40.670Z,99465.16
2022-09-10T17:19:08.877Z,99462.78
2022-09-10T17:21:36.609Z,99463.16
2022-09-10T17:24:04.252Z,99477.81
2022-09-10T17:26:31.867Z,99478.34
2022-09-10T17:28:59.465Z,99479.91
2022-09-10T17:31:27.605Z,99483.13
2022-09-10T17:34:01.163Z,99478.28
2022-09-10T17:36:28.892Z,99476.78
2022-09-10T17:38:56.612Z,99481.69
2022-09-10T17:41:24.325Z,99483.25
2022-09-10T17:43:52.018Z,99481.91
2022-09-10T17:46:22.490Z,99485.75
2022-09-10T17:48:50.252Z,99484.25
2022-09-10T17:51:17.993Z,99496.88
2022-09-10T17:53:45.693Z,99502.44
2022-09-10T17:56:13.275Z,99499.72
2022-09-10T17:58:41.097Z,99500.75
2022-09-10T18:01:09.259Z,99502.78
2022-09-10T18:03:38.253Z,99515.59
2022-09-10T18:06:05.950Z,99509.88
2022-09-10T18:08:33.895Z,99517.63
2022-09-10T18:11:01.910Z,99520.03
2022-09-10T18:13:30.910Z,99525.56
2022-09-10T18:15:58.693Z,99528.25
2022-09-10T18:18:26.550Z,99536.16
2022-09-10T18:20:54.227Z,99542.38
2022-09-10T18:23:27.148Z,99544.91
2022-09-10T18:25:55.618Z,99556.47
2022-09-10T18:28:23.328Z,99558.19
2022-09-10T18:30:50.959Z,99562.72
2022-09-10T18:33:24.669Z,99563.72
2022-09-10T18:35:52.286Z,99573.84
2022-09-10T18:38:19.911Z,99577.34
2022-09-10T18:40:47.534Z,99578.38
2022-09-10T18:43:15.543Z,99581.91
2022-09-10T18:45:43.131Z,99588.97
2022-09-10T18:48:10.944Z,99588.97
2022-09-10T18:50:38.608Z,99600.75
2022-09-10T18:53:08.635Z,99602.94
2022-09-10T18:55:37.304Z,99605.78
2022-09-10T18:58:04.999Z,99615.91
2022-09-10T19:00:33.572Z,99616.06
2022-09-10T19:03:20.120Z,99619.59
2022-09-10T19:05:47.802Z,99628.00
2022-09-10T19:08:17.604Z,99631.69
2022-09-10T19:10:45.291Z,99636.06
2022-09-10T19:13:13.146Z,99636.72
2022-09-10T19:15:40.870Z,99646.31
2022-09-10T19:18:08.640Z,99644.28
2022-09-10T19:20:36.337Z,99649.19
2022-09-10T19:23:04.769Z,99646.13
2022-09-10T19:25:32.772Z,99644.09
2022-09-10T19:28:00.487Z,99655.56
2022-09-10T19:30:30.590Z,99664.47
2022-09-10T19:33:00.610Z,99650.84
2022-09-10T19:35:29.750Z,99661.63
2022-09-10T19:37:58.782Z,99665.81
2022-09-10T19:40:26.548Z,99663.94
2022-09-10T19:42:54.639Z,99665.63
2022-09-10T19:45:22.301Z,99660.25
2022-09-10T19:47:50.017Z,99671.88
2022-09-10T19:50:22.710Z,99671.69
2022-09-10T19:52:53.868Z,99675.38
2022-09-10T19:55:21.619Z,99676.41
2022-09-10T19:57:49.445Z,99680.09
2022-09-10T20:00:36.067Z,99685.47
2022-09-10T20:03:04.949Z,99688.84
2022-09-10T20:05:34.164Z,99694.22
2022-09-10T20:08:01.914Z,99686.16
2022-09-10T20:10:29.828Z,99685.47
2022-09-10T20:12:57.714Z,99682.13
2022-09-10T20:15:25.469Z,99692.22
2022-09-10T20:17:53.141Z,99692.41
2022-09-10T20:20:22.094Z,99691.53
2022-09-10T20:22:49.860Z,99697.13
2022-09-10T20:25:17.939Z,99706.19
2022-09-10T20:27:45.629Z,99702.81
2022-09-10T20:30:13.256Z,99704.84
2022-09-10T20:32:41.466Z,99713.06
2022-09-10T20:35:09.115Z,99710.56
2022-09-10T20:37:37.022Z,99713.44
2022-09-10T20:40:04.915Z,99717.94
2022-09-10T20:42:33.975Z,99719.81
2022-09-10T20:45:02.724Z,99723.19
2022-09-10T20:47:31.650Z,99725.19
2022-09-10T20:49:59.413Z,99723.53
2022-09-10T20:52:29.461Z,99735.31
2022-09-10T20:54:57.093Z,99738.16
2022-09-10T20:57:24.883Z,99734.59
2022-09-10T20:59:52.513Z,99739.16
2022-09-10T21:02:26.486Z,99739.47
2022-09-10T21:04:54.238Z,99747.75
2022-09-10T21:07:22.001Z,99755.09
2022-09-10T21:09:49.674Z,99743.69
2022-09-10T21:12:17.825Z,99751.09
2022-09-10T21:14:45.488Z,99746.88
2022-09-10T21:17:13.180Z,99758.66
2022-09-10T21:19:40.791Z,99756.97
2022-09-10T21:22:09.403Z,99762.50
2022-09-10T21:24:39.589Z,99768.75
2022-09-10T21:27:07.278Z,99767.03
2022-09-10T21:29:35.424Z,99768.91
2022-09-10T21:32:03.507Z,99770.91
2022-09-10T21:34:32.655Z,99783.50
2022-09-10T21:37:00.300Z,99779.16
2022-09-10T21:39:27.932Z,99783.00
2022-09-10T21:41:58.706Z,99781.47
2022-09-10T21:44:26.288Z,99790.72
2022-09-10T21:46:54.038Z,99793.75
2022-09-10T21:49:21.629Z,99794.75
2022-09-10T21:51:49.692Z,99792.06
2022-09-10T21:54:18.734Z,99789.38
2022-09-10T21:56:46.357Z,99791.91
2022-09-10T21:59:14.638Z,99790.91
2022-09-10T22:01:42.523Z,99793.41
2022-09-10T22:04:20.000Z,99793.25
2022-09-10T22:06:50.046Z,99793.09
2022-09-10T22:09:17.743Z,99794.78
2022-09-10T22:11:46.004Z,99799.13
2022-09-10T22:14:13.671Z,99805.53
2022-09-10T22:16:41.377Z,99804.69
2022-09-10T22:19:09.149Z,99809.22
2022-09-10T22:21:38.489Z,99808.22
2022-09-10T22:24:06.554Z,99808.22
2022-09-10T22:26:36.052Z,99816.28
2022-09-10T22:29:03.860Z,99808.22
2022-09-10T22:31:32.365Z,99810.91
2022-09-10T22:34:00.400Z,99809.03
2022-09-10T22:36:29.027Z,99808.88
2022-09-10T22:38:57.179Z,99812.44
2022-09-10T22:41:24.789Z,99814.41
2022-09-10T22:43:53.703Z,99810.06
2022-09-10T22:46:21.522Z,99813.09
2022-09-10T22:48:49.127Z,99816.94
2022-09-10T22:51:16.812Z,99823.47
2022-09-10T22:53:44.434Z,99818.97
2022-09-10T22:56:11.995Z,99826.00
2022-09-10T22:58:39.738Z,99825.16
2022-09-10T23:01:07.742Z,99828.03
2022-09-10T23:03:36.867Z,99824.50
2022-09-10T23:06:06.290Z,99831.72
2022-09-10T23:08:34.299Z,99837.94
2022-09-10T23:11:02.219Z,99830.88
2022-09-10T23:13:30.126Z,99827.50
2022-09-10T23:15:57.815Z,99831.38
2022-09-10T23:18:25.530Z,99821.09
2022-09-10T23:20:53.164Z,99829.66
2022-09-10T23:23:21.148Z,99837.34
2022-09-10T23:25:48.823Z,99838.00
2022-09-10T23:28:16.360Z,99840.31
2022-09-10T23:30:45.762Z,99845.31
2022-09-10T23:33:13.907Z,99845.28
2022-09-10T23:35:41.683Z,99842.56
2022-09-10T23:38:09.834Z,99852.09
2022-09-10T23:40:38.171Z,99852.06
2022-09-10T23:43:06.117Z,99856.19
2022-09-10T23:45:33.861Z,99845.94
2022-09-10T23:48:01.464Z,99851.63
2022-09-10T23:50:29.291Z,99861.84
2022-09-10T23:52:58.243Z,99862.31
2022-09-10T23:55:25.880Z,99852.88
2022-09-10T23:57:53.831Z,99866.63
